Airfield :







YOU CAN JOIN US ON...

 
LOGIN :

Register | Disclaimer

   EN    FR    IT 

 









Legend :    VFR   Marginal VFR   IFR   Intensive IFR   Very Intensive IFR
Visi :
Ceiling :
>= 8 km
>= 3000ft
5 to 8 km
1000 to 3000 ft
1500m to 5 km
500 to 1000 ft
800 to 1500m
200 to 500 ft
< 800m
< 200 ft
Symbols :   Thunderstorms  Fog  Heavy snow  Heavy precipitations  Wind > 20 kt






- Airport Elevation : 68 ft
- IATA code : YFC


CYFC - Fredericton

CURRENT METAR :
  • 280654Z AUTO 03009KT 9SM FEW025 SCT038 OVC055 M02/M06 A2955 RMK SLP010

EXPIRED METARs :
  • 280610Z AUTO 03010G15KT 9SM -SN SCT020 BKN037 OVC045 M02/M05 A2954 RMK SLP005
  • 280602Z AUTO 03010G15KT 9SM -SN BKN020 BKN037 OVC045 M02/M05 A2954 RMK SLP004
  • 280541Z AUTO 02011G17KT 9SM -SN OVC041 M02/M06 A2953 RMK SLP002
  • 280500Z AUTO 01009G15KT 9SM OVC041 M02/M05 A2952 RMK SLP998
  • 280400Z AUTO 01009G15KT 9SM OVC031 M01/M04 A2950 RMK SLP991

TAF TAF CYFC
Valid from the 28 at 06:00 until the 28 at 18:00 UTC


280538Z 2806/2818 35010KT P6SM BKN030
TEMPO 2806/2812 P6SM -SN BKN015 OVC030
FM281200 35010KT P6SM BKN030 RMK FCST BASED ON AUTO OBS. NXT FCST BY 281200Z



MET'MAP, your aeronautical weather chart ! - Copyright ORBIFLY December 2007 - Disclaimer

ORBIFLY MET'MAP TEAM :

Programming & Development : Alexandra Zaïnal
Concept & original design : Baudouin d'Aumeries
Assistance for programming : Marc-Olivier Méhu
Technical & hardware support : Manuel Goepfert

Contact : metmap@orbifly.com




SOURCES & CREDITS :

   NOAA